createdAt,value
2018-07-06T03:55:56.543Z,19.5
2018-07-06T03:56:16.654Z,19.5
2018-07-06T03:56:36.782Z,19.5
2018-07-06T03:56:56.910Z,19.4
2018-07-06T03:57:17.071Z,19.5
2018-07-06T03:57:37.249Z,19.4
2018-07-06T03:57:57.428Z,19.5
2018-07-06T03:58:17.604Z,19.5
2018-07-06T03:58:37.783Z,19.4
2018-07-06T03:58:57.938Z,19.5
2018-07-06T04:02:22.631Z,19.4
2018-07-06T04:02:42.810Z,19.4
2018-07-06T04:03:02.930Z,19.5
2018-07-06T04:03:23.082Z,19.4
2018-07-06T04:03:43.242Z,19.5
2018-07-06T04:04:03.409Z,19.5
2018-07-06T04:09:17.362Z,19.5
2018-07-06T04:09:37.473Z,19.4
2018-07-06T04:15:02.427Z,19.5
2018-07-06T04:15:22.580Z,19.5
2018-07-06T04:20:05.753Z,19.6
2018-07-06T04:23:11.495Z,19.5
2018-07-06T04:23:31.650Z,19.5
2018-07-06T04:23:51.812Z,19.5
2018-07-06T04:26:54.480Z,19.5
2018-07-06T04:27:14.629Z,19.6
2018-07-06T04:27:34.787Z,19.6
2018-07-06T04:27:54.945Z,19.5
2018-07-06T04:28:53.906Z,19.6
2018-07-06T04:29:14.054Z,19.6
2018-07-06T04:29:34.205Z,19.5
2018-07-06T04:29:54.365Z,19.5
2018-07-06T04:30:14.531Z,19.5
2018-07-06T04:30:34.698Z,19.6
2018-07-06T04:30:54.850Z,19.6
2018-07-06T04:32:56.494Z,19.6
2018-07-06T04:33:16.645Z,19.6
2018-07-06T04:33:36.803Z,19.6
2018-07-06T04:34:29.251Z,19.6
2018-07-06T04:34:49.418Z,19.5
2018-07-06T04:35:09.568Z,19.5
2018-07-06T04:35:29.741Z,19.5
2018-07-06T04:35:49.895Z,19.6
2018-07-06T04:36:10.043Z,19.6
2018-07-06T04:36:30.208Z,19.5
2018-07-06T04:36:50.370Z,19.6
2018-07-06T04:37:10.517Z,19.6
2018-07-06T04:37:30.658Z,19.6
2018-07-06T04:37:50.826Z,19.6
2018-07-06T04:38:10.998Z,19.5
2018-07-06T04:38:31.160Z,19.5
2018-07-06T04:38:51.334Z,19.5
2018-07-06T04:39:11.497Z,19.5
2018-07-06T04:39:31.648Z,19.5
2018-07-06T04:39:51.794Z,19.6
2018-07-06T04:40:11.945Z,19.5
2018-07-06T04:40:32.082Z,19.6
2018-07-06T04:40:52.258Z,19.5
2018-07-06T04:41:12.417Z,19.6
2018-07-06T04:41:32.590Z,19.6
2018-07-06T04:41:52.746Z,19.6
2018-07-06T04:42:12.874Z,19.5
2018-07-06T04:42:33.052Z,19.6
2018-07-06T04:42:53.216Z,19.5
2018-07-06T04:43:13.382Z,19.6
2018-07-06T04:43:33.552Z,19.6
2018-07-06T04:43:53.705Z,19.6
2018-07-06T04:44:13.880Z,19.5
2018-07-06T04:44:34.041Z,19.7
2018-07-06T04:44:54.199Z,19.6
2018-07-06T04:45:14.341Z,19.7
2018-07-06T04:45:34.496Z,19.6
2018-07-06T04:45:54.659Z,19.7
2018-07-06T04:46:14.831Z,19.6
2018-07-06T04:46:34.986Z,19.7
2018-07-06T04:46:55.151Z,19.7
2018-07-06T04:47:15.332Z,19.6
2018-07-06T04:47:35.501Z,19.7
2018-07-06T04:47:55.657Z,19.7
2018-07-06T04:48:15.823Z,19.6
2018-07-06T04:48:35.967Z,19.6
2018-07-06T04:48:56.138Z,19.7
2018-07-06T04:49:16.304Z,19.7
2018-07-06T04:49:36.445Z,19.8
2018-07-06T04:49:56.607Z,19.6
2018-07-06T04:50:16.757Z,19.7
2018-07-06T04:50:36.894Z,19.6
2018-07-06T04:50:57.098Z,19.7
2018-07-06T04:51:17.285Z,19.7
2018-07-06T04:51:37.448Z,19.7
2018-07-06T04:51:57.616Z,19.7
2018-07-06T04:52:17.784Z,19.8
2018-07-06T04:52:37.949Z,19.7
2018-07-06T04:52:58.121Z,19.7
2018-07-06T04:53:18.285Z,19.8
2018-07-06T04:53:38.455Z,19.7
2018-07-06T04:53:58.613Z,19.7
2018-07-06T04:54:18.789Z,19.7
2018-07-06T04:54:38.940Z,19.8
2018-07-06T04:54:59.130Z,19.8
2018-07-06T04:55:19.301Z,19.8
2018-07-06T04:55:39.449Z,19.7
2018-07-06T04:55:59.592Z,19.7
2018-07-06T04:56:19.744Z,19.8
2018-07-06T04:56:39.901Z,19.8
2018-07-06T04:57:00.065Z,19.8
2018-07-06T04:57:20.220Z,19.8
2018-07-06T04:57:40.410Z,19.8
2018-07-06T04:58:00.551Z,19.7
2018-07-06T04:58:20.711Z,19.8
2018-07-06T04:58:40.878Z,19.8
2018-07-06T04:59:01.043Z,19.7
2018-07-06T04:59:21.192Z,19.8
2018-07-06T04:59:41.359Z,19.8
2018-07-06T05:00:01.524Z,19.8
2018-07-06T05:00:21.670Z,19.8
2018-07-06T05:00:41.835Z,19.8
2018-07-06T05:01:01.995Z,19.8
2018-07-06T05:01:22.158Z,19.8
2018-07-06T05:01:42.314Z,19.8
2018-07-06T05:02:02.452Z,19.8
2018-07-06T05:02:22.619Z,19.7
2018-07-06T05:02:42.781Z,19.8
2018-07-06T05:03:02.936Z,19.9
2018-07-06T05:03:23.102Z,19.9
2018-07-06T05:03:43.251Z,19.9
2018-07-06T05:04:03.402Z,19.8
2018-07-06T05:04:23.572Z,19.8
2018-07-06T05:04:43.775Z,19.9
2018-07-06T05:05:03.949Z,19.8
2018-07-06T05:05:24.189Z,19.8
2018-07-06T05:05:44.339Z,19.8
2018-07-06T05:06:04.503Z,20
2018-07-06T05:06:24.663Z,19.8
2018-07-06T05:06:44.818Z,20
2018-07-06T05:07:05.031Z,19.9
2018-07-06T05:07:25.193Z,20
2018-07-06T05:07:45.403Z,19.9
2018-07-06T05:08:05.491Z,20
2018-07-06T05:08:25.643Z,20
2018-07-06T05:08:45.802Z,19.9
2018-07-06T05:09:05.955Z,20
2018-07-06T05:09:26.115Z,20
2018-07-06T05:09:46.243Z,20
2018-07-06T05:10:06.391Z,20
2018-07-06T05:10:26.559Z,20
2018-07-06T05:10:46.710Z,19.9
2018-07-06T05:11:06.863Z,19.9
2018-07-06T05:11:27.019Z,20
2018-07-06T05:11:47.163Z,20
2018-07-06T05:12:07.309Z,20.1
2018-07-06T05:12:27.458Z,20.1
2018-07-06T05:12:47.611Z,20
2018-07-06T05:13:07.762Z,20
2018-07-06T05:13:27.977Z,20
2018-07-06T05:13:48.136Z,20.1
2018-07-06T05:14:08.289Z,20
2018-07-06T05:14:28.454Z,20
2018-07-06T05:14:48.608Z,20.1
2018-07-06T05:15:08.778Z,20.1
2018-07-06T05:15:28.938Z,20.1
2018-07-06T05:15:49.096Z,20.1
2018-07-06T05:16:09.249Z,20.1
2018-07-06T05:16:29.414Z,20.1
2018-07-06T05:16:50.048Z,20.1
2018-07-06T05:17:10.195Z,20.1
2018-07-06T05:17:30.353Z,20.1
2018-07-06T05:17:50.498Z,20.1
2018-07-06T05:18:10.657Z,20
2018-07-06T05:18:30.812Z,20.1
2018-07-06T05:18:50.985Z,20.2
2018-07-06T05:19:11.154Z,20.1
2018-07-06T05:19:31.284Z,20.1
2018-07-06T05:19:51.448Z,20.1
2018-07-06T05:20:11.633Z,20.1
2018-07-06T05:20:31.797Z,20.2
2018-07-06T05:20:51.935Z,20.1
2018-07-06T05:21:12.079Z,20.1
2018-07-06T05:21:32.283Z,20.1
2018-07-06T05:21:52.459Z,20.1
2018-07-06T05:22:12.638Z,20.1
2018-07-06T05:22:32.793Z,20.1
2018-07-06T05:22:52.967Z,20.1
2018-07-06T05:23:13.128Z,20.1
2018-07-06T05:23:33.290Z,20.2
2018-07-06T05:23:53.464Z,20.1
2018-07-06T05:24:13.621Z,20.1
2018-07-06T05:24:33.791Z,20.1
2018-07-06T05:24:53.956Z,20.1
2018-07-06T05:25:14.113Z,20.1
2018-07-06T05:25:34.382Z,20.1
2018-07-06T05:25:54.562Z,20.1
2018-07-06T05:26:14.702Z,20.1
2018-07-06T05:26:34.851Z,20.1
2018-07-06T05:26:55.014Z,20.1
2018-07-06T05:27:15.166Z,20.1
2018-07-06T05:27:35.325Z,20.1
2018-07-06T05:27:55.494Z,20.1
2018-07-06T05:28:15.657Z,20.2
2018-07-06T05:28:35.820Z,20.1
2018-07-06T05:28:55.978Z,20.2
2018-07-06T05:29:16.145Z,20.2
2018-07-06T05:29:36.320Z,20.2
2018-07-06T05:29:56.495Z,20.2
2018-07-06T05:30:16.648Z,20.2
2018-07-06T05:30:36.825Z,20.2
2018-07-06T05:30:56.992Z,20.2
2018-07-06T05:31:17.190Z,20.2
2018-07-06T05:31:37.345Z,20.2
2018-07-06T05:31:57.556Z,20.2
2018-07-06T05:32:17.676Z,20.3
2018-07-06T05:32:37.844Z,20.3
2018-07-06T05:32:57.999Z,20.2
2018-07-06T05:33:18.185Z,20.2
2018-07-06T05:33:38.461Z,20.3
2018-07-06T05:33:58.744Z,20.2
2018-07-06T05:34:18.903Z,20.3
2018-07-06T05:34:39.077Z,20.2
2018-07-06T05:34:59.247Z,20.2
2018-07-06T05:35:19.419Z,20.2
2018-07-06T05:35:39.591Z,20.3
2018-07-06T05:35:59.742Z,20.2
2018-07-06T05:36:19.899Z,20.2
2018-07-06T05:36:40.014Z,20.3
2018-07-06T05:37:00.190Z,20.3
2018-07-06T05:37:20.353Z,20.3
2018-07-06T05:37:40.505Z,20.2
2018-07-06T05:38:00.770Z,20.2
2018-07-06T05:38:20.927Z,20.2
2018-07-06T05:38:41.109Z,20.2
2018-07-06T05:39:01.259Z,20.2
2018-07-06T05:39:21.431Z,20.2
2018-07-06T05:39:41.576Z,20.2
2018-07-06T05:40:01.728Z,20.2
2018-07-06T05:40:21.873Z,20.1
2018-07-06T05:40:42.053Z,20.2
2018-07-06T05:41:02.209Z,20.2
2018-07-06T05:41:22.365Z,20.1
2018-07-06T05:41:42.497Z,20.2
2018-07-06T05:42:02.630Z,20.2
2018-07-06T05:42:22.787Z,20.2
2018-07-06T05:42:42.943Z,20.1
2018-07-06T05:43:03.088Z,20.2
2018-07-06T05:43:23.229Z,20.2
2018-07-06T05:43:43.378Z,20.2
2018-07-06T05:44:03.596Z,20.2
2018-07-06T05:44:23.757Z,20.2
2018-07-06T05:44:43.893Z,20.2
2018-07-06T05:45:04.061Z,20.2
2018-07-06T05:45:24.230Z,20.2
2018-07-06T05:45:44.398Z,20.2
2018-07-06T05:46:04.569Z,20.2
2018-07-06T05:46:24.736Z,20.1
2018-07-06T05:46:44.864Z,20.2
2018-07-06T05:47:05.110Z,20.2
2018-07-06T05:47:25.312Z,20.2
2018-07-06T05:47:45.476Z,20.2
2018-07-06T05:48:05.809Z,20.2
2018-07-06T05:48:26.005Z,20.2
2018-07-06T05:48:46.187Z,20.2
2018-07-06T05:49:06.354Z,20.3
2018-07-06T05:49:26.503Z,20.2
2018-07-06T05:49:46.720Z,20.2
2018-07-06T05:50:06.918Z,20.2
2018-07-06T05:50:27.082Z,20.2
2018-07-06T05:50:47.290Z,20.3
2018-07-06T05:51:07.512Z,20.2
2018-07-06T05:51:27.724Z,20.2
2018-07-06T05:51:47.883Z,20.3
2018-07-06T05:52:08.028Z,20.3
2018-07-06T05:52:28.170Z,20.3
2018-07-06T05:52:48.335Z,20.2
2018-07-06T05:53:08.555Z,20.2
2018-07-06T05:53:28.713Z,20.2
2018-07-06T05:53:48.955Z,20.3
2018-07-06T05:54:09.140Z,20.3
2018-07-06T05:54:29.357Z,20.3
2018-07-06T05:54:49.529Z,20.3
2018-07-06T05:55:09.712Z,20.3
2018-07-06T05:55:29.886Z,20.3
2018-07-06T05:55:50.101Z,20.2
2018-07-06T05:56:10.317Z,20.3
2018-07-06T05:56:30.455Z,20.3
2018-07-06T05:56:50.603Z,20.4
2018-07-06T05:57:10.776Z,20.3
2018-07-06T05:57:31.005Z,20.3
2018-07-06T05:57:51.212Z,20.3
2018-07-06T05:58:11.403Z,20.3
2018-07-06T05:58:31.638Z,20.3
2018-07-06T05:58:51.903Z,20.3
2018-07-06T05:59:12.085Z,20.2
2018-07-06T05:59:32.277Z,20.3
2018-07-06T05:59:52.468Z,20.3
2018-07-06T06:00:12.711Z,20.3
2018-07-06T06:00:32.913Z,20.2
2018-07-06T06:00:53.081Z,20.3
2018-07-06T06:01:13.252Z,20.2
2018-07-06T06:01:33.422Z,20.3
2018-07-06T06:01:53.578Z,20.2
2018-07-06T06:02:13.735Z,20.2
2018-07-06T06:02:33.885Z,20.2
2018-07-06T06:02:54.034Z,20.3
2018-07-06T06:03:14.251Z,20.3
2018-07-06T06:03:34.509Z,20.3
2018-07-06T06:03:54.941Z,20.2
2018-07-06T06:04:15.125Z,20.3
2018-07-06T06:04:35.325Z,20.4
2018-07-06T06:04:55.488Z,20.4
2018-07-06T06:05:15.652Z,20.4
2018-07-06T06:05:35.852Z,20.4
2018-07-06T06:05:56.062Z,20.4
2018-07-06T06:06:16.314Z,20.4
2018-07-06T06:06:36.466Z,20.4
2018-07-06T06:06:56.625Z,20.4
2018-07-06T06:07:16.805Z,20.4
2018-07-06T06:07:37.021Z,20.4
2018-07-06T06:07:57.287Z,20.4
2018-07-06T06:08:17.513Z,20.4
2018-07-06T06:08:37.665Z,20.4
2018-07-06T06:08:57.858Z,20.4
2018-07-06T06:09:18.039Z,20.4
2018-07-06T06:09:38.226Z,20.5
2018-07-06T06:09:58.388Z,20.4
2018-07-06T06:10:18.588Z,20.5
2018-07-06T06:10:38.824Z,20.5
2018-07-06T06:10:59.006Z,20.5
2018-07-06T06:11:19.203Z,20.5
2018-07-06T06:11:39.405Z,20.4
2018-07-06T06:11:59.620Z,20.5
2018-07-06T06:12:19.872Z,20.5
2018-07-06T06:12:40.059Z,20.5
2018-07-06T06:13:00.207Z,20.5
2018-07-06T06:13:20.441Z,20.5
2018-07-06T06:13:40.643Z,20.5
2018-07-06T06:14:00.837Z,20.5
2018-07-06T06:14:20.998Z,20.5
2018-07-06T06:14:41.173Z,20.5
2018-07-06T06:15:01.338Z,20.6
2018-07-06T06:15:21.584Z,20.5
2018-07-06T06:15:41.781Z,20.5
2018-07-06T06:16:02.018Z,20.5
2018-07-06T06:16:22.148Z,20.5
2018-07-06T06:16:42.347Z,20.6
2018-07-06T06:17:02.480Z,20.6
2018-07-06T06:17:22.646Z,20.5
2018-07-06T06:17:42.812Z,20.5
2018-07-06T06:18:02.978Z,20.5
2018-07-06T06:18:23.209Z,20.6
2018-07-06T06:18:43.497Z,20.5
2018-07-06T06:19:03.797Z,20.5
2018-07-06T06:19:23.931Z,20.5
2018-07-06T06:19:44.106Z,20.6
2018-07-06T06:20:04.302Z,20.5
2018-07-06T06:20:24.481Z,20.5
2018-07-06T06:20:44.678Z,20.5
2018-07-06T06:21:04.861Z,20.6
2018-07-06T06:21:25.097Z,20.5
2018-07-06T06:21:45.269Z,20.5
2018-07-06T06:22:05.463Z,20.6
2018-07-06T06:22:25.604Z,20.5
2018-07-06T06:22:45.831Z,20.6
2018-07-06T06:23:06.080Z,20.6
2018-07-06T06:23:26.264Z,20.6
2018-07-06T06:23:46.434Z,20.6
2018-07-06T06:24:06.704Z,20.7
2018-07-06T06:24:26.883Z,20.8
2018-07-06T06:24:47.119Z,20.7
2018-07-06T06:25:07.359Z,20.6
2018-07-06T06:25:27.563Z,20.6
2018-07-06T06:25:47.772Z,20.7
2018-07-06T06:26:07.971Z,20.7
2018-07-06T06:26:28.142Z,20.7
2018-07-06T06:26:48.314Z,20.7
2018-07-06T06:27:08.473Z,20.7
2018-07-06T06:27:28.650Z,20.7
2018-07-06T06:27:48.871Z,20.7
2018-07-06T06:28:09.014Z,20.8
2018-07-06T06:28:29.248Z,20.8
2018-07-06T06:28:49.546Z,20.8
2018-07-06T06:29:09.807Z,20.9
2018-07-06T06:29:29.988Z,20.9
2018-07-06T06:29:50.186Z,20.8
2018-07-06T06:30:10.492Z,20.8
2018-07-06T06:30:30.712Z,20.9
2018-07-06T06:30:50.905Z,20.8
2018-07-06T06:31:11.081Z,20.8
2018-07-06T06:31:31.271Z,20.8
2018-07-06T06:31:51.485Z,20.8
2018-07-06T06:32:11.678Z,20.9
2018-07-06T06:32:31.863Z,20.9
2018-07-06T06:32:52.098Z,20.8
2018-07-06T06:33:12.290Z,20.8
2018-07-06T06:33:32.948Z,20.9
2018-07-06T06:33:53.249Z,20.8
2018-07-06T06:34:13.238Z,20.9
2018-07-06T06:34:33.424Z,20.8
2018-07-06T06:34:53.588Z,20.9
2018-07-06T06:35:13.773Z,20.9
2018-07-06T06:35:33.960Z,20.9
2018-07-06T06:35:54.130Z,20.8
2018-07-06T06:36:14.299Z,20.8
2018-07-06T06:36:34.476Z,20.8
2018-07-06T06:36:54.710Z,20.9
2018-07-06T06:37:14.880Z,20.9
2018-07-06T06:37:35.041Z,20.9
2018-07-06T06:37:55.183Z,20.9
2018-07-06T06:38:15.334Z,20.8
2018-07-06T06:38:35.539Z,20.8
2018-07-06T06:38:55.734Z,20.8
2018-07-06T06:39:15.904Z,20.8
2018-07-06T06:39:36.174Z,20.8
2018-07-06T06:39:56.348Z,20.7
2018-07-06T06:40:16.522Z,20.7
2018-07-06T06:40:36.686Z,20.8
2018-07-06T06:40:56.880Z,20.7
2018-07-06T06:41:17.141Z,20.7
2018-07-06T06:41:37.348Z,20.8
2018-07-06T06:41:57.554Z,20.8
2018-07-06T06:42:17.724Z,20.7
2018-07-06T06:42:37.911Z,20.7
2018-07-06T06:42:58.075Z,20.7
2018-07-06T06:43:18.240Z,20.7
2018-07-06T06:43:38.455Z,20.7
2018-07-06T06:43:58.624Z,20.8
2018-07-06T06:44:18.825Z,20.7
2018-07-06T06:44:39.050Z,20.8
2018-07-06T06:44:59.234Z,20.8
2018-07-06T06:45:19.402Z,20.7
2018-07-06T06:45:39.549Z,20.7
2018-07-06T06:45:59.704Z,20.7
2018-07-06T06:46:19.995Z,20.7
2018-07-06T06:46:40.194Z,20.7
2018-07-06T06:47:00.418Z,20.7
2018-07-06T06:47:20.635Z,20.7
2018-07-06T06:47:40.848Z,20.7
2018-07-06T06:48:00.985Z,20.7
2018-07-06T06:48:21.153Z,20.6
2018-07-06T06:48:41.349Z,20.6
2018-07-06T06:49:01.541Z,20.7
2018-07-06T06:49:21.723Z,20.7
2018-07-06T06:49:41.948Z,20.7
2018-07-06T06:50:02.116Z,20.6
2018-07-06T06:50:22.274Z,20.6
2018-07-06T06:50:42.583Z,20.7
2018-07-06T06:51:02.737Z,20.7
2018-07-06T06:51:22.927Z,20.7
2018-07-06T06:51:43.082Z,20.7
2018-07-06T06:52:03.233Z,20.7
2018-07-06T06:52:23.412Z,20.6
2018-07-06T06:52:43.562Z,20.7
2018-07-06T06:53:03.846Z,20.7
2018-07-06T06:53:23.951Z,20.8
2018-07-06T06:53:44.130Z,20.8
2018-07-06T06:54:04.343Z,20.7
2018-07-06T06:54:24.562Z,20.7
2018-07-06T06:54:44.723Z,20.8
2018-07-06T06:55:04.878Z,20.7
2018-07-06T06:55:25.068Z,20.8
2018-07-06T06:55:45.283Z,20.8
2018-07-06T06:56:05.469Z,20.9
2018-07-06T06:56:25.641Z,20.9
2018-07-06T06:56:45.822Z,20.9
2018-07-06T06:57:06.063Z,20.9
2018-07-06T06:57:26.245Z,20.9
2018-07-06T06:57:46.427Z,20.9
2018-07-06T06:58:06.589Z,20.8
2018-07-06T06:58:26.786Z,21
2018-07-06T06:58:47.000Z,20.9
2018-07-06T06:59:07.223Z,20.9
2018-07-06T06:59:27.363Z,21
2018-07-06T06:59:47.556Z,21
2018-07-06T07:00:07.709Z,20.9
2018-07-06T07:00:27.971Z,21
2018-07-06T07:00:48.153Z,21
2018-07-06T07:01:08.355Z,21.1
2018-07-06T07:01:28.536Z,21
2018-07-06T07:01:48.710Z,21.1
2018-07-06T07:02:08.896Z,21
2018-07-06T07:02:29.050Z,21.1
2018-07-06T07:02:49.216Z,21
2018-07-06T07:03:09.399Z,21.1
2018-07-06T07:03:29.645Z,21
2018-07-06T07:03:49.803Z,21
2018-07-06T07:04:09.984Z,21.1
2018-07-06T07:04:30.104Z,21.1
2018-07-06T07:04:50.312Z,21.1
2018-07-06T07:05:10.543Z,21.2
2018-07-06T07:05:30.734Z,21.2
2018-07-06T07:05:50.898Z,21.1
2018-07-06T07:06:11.115Z,21.2
2018-07-06T07:06:31.317Z,21.1
2018-07-06T07:06:51.573Z,21.2
2018-07-06T07:07:11.727Z,21.2
2018-07-06T07:07:32.005Z,21.2
2018-07-06T07:07:52.056Z,21.2
2018-07-06T07:08:12.287Z,21.2
2018-07-06T07:08:32.481Z,21.2
2018-07-06T07:08:52.620Z,21.3
2018-07-06T07:09:12.777Z,21.2
2018-07-06T07:09:32.971Z,21.2
2018-07-06T07:09:53.164Z,21.2
2018-07-06T07:10:13.297Z,21.2
2018-07-06T07:10:33.517Z,21.2
2018-07-06T07:10:53.721Z,21.2
2018-07-06T07:11:13.969Z,21.2
2018-07-06T07:11:34.167Z,21.2
2018-07-06T07:11:54.359Z,21.3
2018-07-06T07:12:14.508Z,21.2
2018-07-06T07:12:34.730Z,21.2
2018-07-06T07:12:54.953Z,21.2
2018-07-06T07:13:15.142Z,21.1
2018-07-06T07:13:35.323Z,21.1
2018-07-06T07:13:55.698Z,21.2
2018-07-06T07:14:15.829Z,21.2
2018-07-06T07:14:36.007Z,21.2
2018-07-06T07:14:56.338Z,21.2
2018-07-06T07:15:16.563Z,21.2
2018-07-06T07:15:36.753Z,21.2
2018-07-06T07:15:56.952Z,21.2
2018-07-06T07:16:17.090Z,21.3
2018-07-06T07:16:37.269Z,21.2
2018-07-06T07:16:57.425Z,21.2
2018-07-06T07:17:17.602Z,21.2
2018-07-06T07:17:37.778Z,21.2
2018-07-06T07:17:57.950Z,21.2
2018-07-06T07:18:18.098Z,21.2
2018-07-06T07:18:38.335Z,21.1
2018-07-06T07:18:58.691Z,21.2
2018-07-06T07:19:18.862Z,21.2
2018-07-06T07:19:39.103Z,21.2
2018-07-06T07:19:59.308Z,21.2
2018-07-06T07:20:19.630Z,21.1
2018-07-06T07:20:39.835Z,21.2
2018-07-06T07:21:00.018Z,21.1
2018-07-06T07:21:20.256Z,21.2
2018-07-06T07:21:40.499Z,21.1
2018-07-06T07:22:00.647Z,21.2
2018-07-06T07:22:20.787Z,21.2
2018-07-06T07:22:40.925Z,21.1
2018-07-06T07:23:01.062Z,21.1
2018-07-06T07:23:21.251Z,21.1
2018-07-06T07:23:41.496Z,21.2
2018-07-06T07:24:01.587Z,21.1
2018-07-06T07:24:21.844Z,21.1
2018-07-06T07:24:42.006Z,21.1
2018-07-06T07:25:02.200Z,21.1
2018-07-06T07:25:22.353Z,21.1
2018-07-06T07:25:42.550Z,21.1
2018-07-06T07:26:02.750Z,21
2018-07-06T07:26:22.927Z,21
2018-07-06T07:26:43.074Z,21.1
2018-07-06T07:27:03.253Z,21
2018-07-06T07:27:23.417Z,21
2018-07-06T07:27:43.609Z,21.1
2018-07-06T07:28:03.753Z,21.1
2018-07-06T07:28:23.914Z,21.1
2018-07-06T07:28:44.086Z,21.1
2018-07-06T07:29:04.246Z,21
2018-07-06T07:29:24.508Z,21
2018-07-06T07:29:44.660Z,21.1
2018-07-06T07:30:04.984Z,21
2018-07-06T07:30:25.088Z,21
2018-07-06T07:30:45.279Z,21.1
2018-07-06T07:31:05.434Z,21.1
2018-07-06T07:31:25.592Z,21.1
2018-07-06T07:31:45.771Z,21
2018-07-06T07:32:05.952Z,21
2018-07-06T07:32:26.128Z,21.1
2018-07-06T07:32:46.321Z,21
2018-07-06T07:33:06.511Z,21
2018-07-06T07:33:26.676Z,21
2018-07-06T07:33:46.870Z,21
2018-07-06T07:34:07.069Z,21
2018-07-06T07:34:27.225Z,21
2018-07-06T07:34:47.437Z,21
2018-07-06T07:35:07.632Z,21
2018-07-06T07:35:27.803Z,21
2018-07-06T07:35:47.974Z,21
2018-07-06T07:36:08.127Z,21
2018-07-06T07:36:28.284Z,20.9
2018-07-06T07:36:48.449Z,20.9
2018-07-06T07:37:08.667Z,20.9
2018-07-06T07:37:28.817Z,20.9
2018-07-06T07:37:48.956Z,20.9
2018-07-06T07:38:09.139Z,20.8
2018-07-06T07:38:29.290Z,20.9
2018-07-06T07:38:49.494Z,20.9
2018-07-06T07:39:09.790Z,21
2018-07-06T07:39:30.035Z,20.9
2018-07-06T07:39:49.982Z,20.9
2018-07-06T07:40:10.177Z,20.8
2018-07-06T07:40:30.311Z,20.8
2018-07-06T07:40:50.497Z,20.8
2018-07-06T07:41:10.637Z,20.8
2018-07-06T07:41:30.855Z,20.7
2018-07-06T07:41:51.028Z,20.8
2018-07-06T07:42:11.180Z,20.7
2018-07-06T07:42:31.383Z,20.7
2018-07-06T07:42:51.538Z,20.7
2018-07-06T07:43:11.692Z,20.7
2018-07-06T07:43:31.846Z,20.6
2018-07-06T07:43:52.015Z,20.7
2018-07-06T07:44:12.162Z,20.7
2018-07-06T07:44:32.330Z,20.7
2018-07-06T07:44:52.497Z,20.7
2018-07-06T07:45:12.658Z,20.7
2018-07-06T07:45:32.789Z,20.6
2018-07-06T07:45:52.956Z,20.6
2018-07-06T07:46:13.128Z,20.6
2018-07-06T07:46:33.346Z,20.6
2018-07-06T07:46:53.442Z,20.6
2018-07-06T07:47:13.594Z,20.5
2018-07-06T07:47:33.822Z,20.6
2018-07-06T07:47:53.995Z,20.6
2018-07-06T07:48:14.184Z,20.6
2018-07-06T07:48:34.332Z,20.6
2018-07-06T07:48:54.522Z,20.7
2018-07-06T07:49:14.727Z,20.6
2018-07-06T07:49:34.896Z,20.7
2018-07-06T07:49:55.075Z,20.7
2018-07-06T07:50:15.236Z,20.7
2018-07-06T07:50:35.414Z,20.7
2018-07-06T07:50:55.610Z,20.7
2018-07-06T07:51:15.812Z,20.7
2018-07-06T07:51:35.945Z,20.7
2018-07-06T07:51:56.076Z,20.7
2018-07-06T07:52:16.273Z,20.7
2018-07-06T07:52:36.438Z,20.7
2018-07-06T07:52:56.613Z,20.8
2018-07-06T07:53:16.787Z,20.7
2018-07-06T07:53:36.922Z,20.7
2018-07-06T07:53:57.070Z,20.8
2018-07-06T07:54:17.254Z,20.8
2018-07-06T07:54:37.502Z,20.7
2018-07-06T07:54:57.649Z,20.8
2018-07-06T07:55:17.960Z,20.8
2018-07-06T07:55:38.156Z,20.7
2018-07-06T07:55:58.338Z,20.7
2018-07-06T07:56:18.502Z,20.7
2018-07-06T07:56:38.693Z,20.7
2018-07-06T07:56:58.846Z,20.8
2018-07-06T07:57:19.001Z,20.7
2018-07-06T07:57:39.130Z,20.7
2018-07-06T07:57:59.279Z,20.7
2018-07-06T07:58:19.446Z,20.7
2018-07-06T07:58:39.627Z,20.7
2018-07-06T07:58:59.795Z,20.8
2018-07-06T07:59:19.998Z,20.8
2018-07-06T07:59:40.141Z,20.8
2018-07-06T08:00:00.305Z,20.8
2018-07-06T08:00:20.481Z,20.9
2018-07-06T08:00:41.037Z,20.9
2018-07-06T08:01:01.142Z,20.8
2018-07-06T08:01:21.719Z,20.8
2018-07-06T08:01:41.767Z,20.8
2018-07-06T08:02:01.966Z,20.8
2018-07-06T08:02:22.132Z,20.9
2018-07-06T08:02:42.338Z,20.9
2018-07-06T08:03:02.529Z,20.9
2018-07-06T08:03:22.700Z,20.9
2018-07-06T08:03:42.876Z,21
2018-07-06T08:04:03.018Z,21
2018-07-06T08:04:23.157Z,21
2018-07-06T08:04:43.344Z,21
2018-07-06T08:05:03.523Z,21
2018-07-06T08:05:23.682Z,20.9
2018-07-06T08:05:43.824Z,21
2018-07-06T08:06:03.982Z,21
2018-07-06T08:06:24.164Z,21
2018-07-06T08:06:44.317Z,21
2018-07-06T08:07:04.505Z,21
2018-07-06T08:07:24.701Z,21
2018-07-06T08:07:44.998Z,21
2018-07-06T08:08:05.176Z,21.1
2018-07-06T08:08:25.334Z,21
2018-07-06T08:08:45.496Z,21.1
2018-07-06T08:09:05.665Z,21.1
2018-07-06T08:09:25.817Z,21.2
2018-07-06T08:09:45.977Z,21.1
2018-07-06T08:10:06.117Z,21.2
2018-07-06T08:10:26.267Z,21.2
2018-07-06T08:10:46.423Z,21.2
2018-07-06T08:11:06.615Z,21.3
2018-07-06T08:11:26.788Z,21.3
2018-07-06T08:11:46.964Z,21.3
2018-07-06T08:12:07.107Z,21.3
2018-07-06T08:12:27.269Z,21.4
2018-07-06T08:12:47.451Z,21.4
2018-07-06T08:13:07.596Z,21.3
2018-07-06T08:13:27.763Z,21.3
2018-07-06T08:13:47.995Z,21.3
2018-07-06T08:14:08.162Z,21.3
2018-07-06T08:14:28.342Z,21.4
2018-07-06T08:14:48.475Z,21.3
2018-07-06T08:15:08.640Z,21.3
2018-07-06T08:15:28.783Z,21.3
2018-07-06T08:15:48.935Z,21.4
2018-07-06T08:16:09.092Z,21.3
2018-07-06T08:16:29.233Z,21.3
2018-07-06T08:16:49.392Z,21.3
2018-07-06T08:17:09.550Z,21.3
2018-07-06T08:17:29.694Z,21.3
2018-07-06T08:17:49.884Z,21.3
2018-07-06T08:18:10.054Z,21.3
2018-07-06T08:18:30.225Z,21.4
2018-07-06T08:18:50.419Z,21.3
2018-07-06T08:19:10.583Z,21.4
2018-07-06T08:19:30.744Z,21.3
2018-07-06T08:19:50.936Z,21.3
2018-07-06T08:20:11.109Z,21.3
2018-07-06T08:20:31.228Z,21.4
2018-07-06T08:20:51.422Z,21.4
2018-07-06T08:21:11.588Z,21.4
2018-07-06T08:21:31.809Z,21.4
2018-07-06T08:21:51.908Z,21.4
2018-07-06T08:22:12.038Z,21.4
2018-07-06T08:22:32.231Z,21.4
2018-07-06T08:22:52.449Z,21.4
2018-07-06T08:23:12.587Z,21.5
2018-07-06T08:23:32.794Z,21.4
2018-07-06T08:23:52.941Z,21.4
2018-07-06T08:24:13.075Z,21.4
2018-07-06T08:24:33.233Z,21.4
2018-07-06T08:24:53.434Z,21.3
2018-07-06T08:25:13.597Z,21.4
2018-07-06T08:25:33.851Z,21.3
2018-07-06T08:25:53.944Z,21.3
2018-07-06T08:26:14.132Z,21.3
2018-07-06T08:26:34.264Z,21.4
2018-07-06T08:26:54.391Z,21.4
2018-07-06T08:27:14.579Z,21.4
2018-07-06T08:27:34.750Z,21.3
2018-07-06T08:27:54.911Z,21.3
2018-07-06T08:28:15.057Z,21.3
2018-07-06T08:28:35.246Z,21.3
2018-07-06T08:28:55.409Z,21.3
2018-07-06T08:29:15.567Z,21.3
2018-07-06T08:29:35.722Z,21.3
2018-07-06T08:29:55.878Z,21.3
2018-07-06T08:30:16.067Z,21.4
2018-07-06T08:30:36.208Z,21.3
2018-07-06T08:30:56.389Z,21.3
2018-07-06T08:31:16.567Z,21.3
2018-07-06T08:31:36.809Z,21.3
2018-07-06T08:31:57.089Z,21.4
2018-07-06T08:32:17.267Z,21.3
2018-07-06T08:32:37.423Z,21.4
2018-07-06T08:32:57.567Z,21.3
2018-07-06T08:33:17.701Z,21.3
2018-07-06T08:33:37.881Z,21.3
2018-07-06T08:33:58.071Z,21.3
2018-07-06T08:34:18.232Z,21.3
2018-07-06T08:34:38.415Z,21.3
2018-07-06T08:34:58.644Z,21.2
2018-07-06T08:35:18.787Z,21.3
2018-07-06T08:35:38.924Z,21.3
2018-07-06T08:35:59.071Z,21.3
2018-07-06T08:36:19.255Z,21.3
2018-07-06T08:36:39.401Z,21.3
2018-07-06T08:36:59.562Z,21.3
2018-07-06T08:37:19.724Z,21.3
2018-07-06T08:37:39.877Z,21.3
2018-07-06T08:38:00.032Z,21.3
2018-07-06T08:38:20.193Z,21.3
2018-07-06T08:38:40.477Z,21.4
2018-07-06T08:39:00.636Z,21.4
2018-07-06T08:39:20.797Z,21.2
2018-07-06T08:39:41.061Z,21.2
2018-07-06T08:40:01.139Z,21.2
2018-07-06T08:40:21.285Z,21.2
2018-07-06T08:40:41.443Z,21.2
2018-07-06T08:41:01.603Z,21.3
2018-07-06T08:41:22.102Z,21.2
2018-07-06T08:41:42.268Z,21.2
2018-07-06T08:42:02.464Z,21.3
2018-07-06T08:42:22.641Z,21.3
2018-07-06T08:42:42.802Z,21.2
2018-07-06T08:43:02.965Z,21.2
2018-07-06T08:43:23.775Z,21.3
2018-07-06T08:43:43.928Z,21.3
2018-07-06T08:44:04.087Z,21.4
2018-07-06T08:44:24.230Z,21.3
2018-07-06T08:44:44.417Z,21.4
2018-07-06T08:45:04.575Z,21.4
2018-07-06T08:45:24.709Z,21.4
2018-07-06T08:45:44.846Z,21.4
2018-07-06T08:46:05.013Z,21.4
2018-07-06T08:46:25.177Z,21.4
2018-07-06T08:46:46.532Z,21.5
2018-07-06T08:47:06.681Z,21.5
2018-07-06T08:47:26.836Z,21.5
2018-07-06T08:47:47.001Z,21.5
2018-07-06T08:48:07.166Z,21.5
2018-07-06T08:48:27.327Z,21.5
2018-07-06T08:48:47.478Z,21.5
2018-07-06T08:49:07.698Z,21.5
2018-07-06T08:49:27.893Z,21.5
2018-07-06T08:49:48.072Z,21.6
2018-07-06T08:50:08.221Z,21.5
2018-07-06T08:50:28.514Z,21.5
2018-07-06T08:50:48.623Z,21.6
2018-07-06T08:51:08.812Z,21.7
2018-07-06T08:51:28.962Z,21.6